Happy Jack, Arizona
Current Conditions -  °F | °C
As of 6:35 AM on Saturday 20 Dec 2014 (Local Time) from KSEZ Reporting Station
Clear Clear  
Wind Chill: 30°   Ceiling: Unl
Heat Index: 37°   Visibility: 10mi
Dew Point: 30°   Wind: 10mph
Humidity: 75%   Direction: 50°NE
Pressure: 30.15"   Gusts: NA
Location:  34.74°N, 111.41°W
Report Text: KSEZ 201335Z AUTO 05009KT 10SM CLR 03/M01 A3015 RMK AO2
Loading
Personal Weather Stations






























Interactive Weather Map New forecast layout! Learn more

10-Day Weather Forecast

Advertisements
Track Severe Weather on mobile